createdAt,value
2019-06-01T00:00:14.899Z,54.59
2019-06-01T00:01:19.866Z,54.44
2019-06-01T00:02:25.151Z,55.12
2019-06-01T00:03:30.158Z,55.53
2019-06-01T00:04:36.024Z,54.96
2019-06-01T00:05:40.984Z,55.86
2019-06-01T00:06:47.027Z,56.15
2019-06-01T00:07:52.182Z,56.72
2019-06-01T00:08:58.028Z,56.36
2019-06-01T00:10:03.001Z,55.52
2019-06-01T00:11:08.547Z,55.28
2019-06-01T00:12:13.235Z,55.33
2019-06-01T00:13:18.791Z,55.12
2019-06-01T00:14:24.096Z,55.52
2019-06-01T00:15:30.044Z,55.91
2019-06-01T00:16:34.762Z,55.44
2019-06-01T00:17:41.760Z,55.52
2019-06-01T00:18:48.231Z,55.44
2019-06-01T00:19:54.286Z,54.83
2019-06-01T00:20:59.524Z,55.24
2019-06-01T00:22:05.070Z,54.60
2019-06-01T00:23:10.115Z,55.89
2019-06-01T00:24:15.967Z,56.08
2019-06-01T00:25:20.948Z,56.56
2019-06-01T00:26:27.188Z,55.88
2019-06-01T00:27:32.246Z,55.88
2019-06-01T00:28:37.793Z,56.40
2019-06-01T00:29:42.718Z,55.61
2019-06-01T00:30:48.592Z,55.60
2019-06-01T00:31:53.350Z,55.72
2019-06-01T00:32:58.931Z,55.03
2019-06-01T00:34:04.182Z,55.22
2019-06-01T00:35:09.741Z,55.46
2019-06-01T00:36:14.440Z,55.74
2019-06-01T00:37:20.011Z,56.26
2019-06-01T00:38:25.259Z,57.11
2019-06-01T00:39:30.278Z,56.24
2019-06-01T00:40:35.539Z,57.98
2019-06-01T00:41:41.917Z,57.54
2019-06-01T00:42:48.214Z,58.33
2019-06-01T00:43:54.214Z,58.02
2019-06-01T00:44:59.599Z,58.62
2019-06-01T00:46:04.897Z,58.93
2019-06-01T00:47:10.205Z,58.18
2019-06-01T00:48:15.590Z,57.62
2019-06-01T00:49:20.833Z,56.64
2019-06-01T00:50:25.891Z,57.30
2019-06-01T00:51:31.163Z,56.60
2019-06-01T00:52:36.672Z,57.18
2019-06-01T00:53:43.293Z,57.27
2019-06-01T00:54:49.487Z,57.03
2019-06-01T00:55:54.292Z,56.81
2019-06-01T00:57:00.290Z,57.57
2019-06-01T00:58:05.001Z,57.70
2019-06-01T00:59:10.329Z,57.29
2019-06-01T01:00:15.304Z,57.20
2019-06-01T01:01:20.883Z,57.64
2019-06-01T01:02:25.575Z,57.73
2019-06-01T01:03:31.170Z,58.35
2019-06-01T01:04:36.435Z,57.18
2019-06-01T01:05:41.757Z,56.86
2019-06-01T01:06:46.763Z,57.12
2019-06-01T01:07:53.550Z,57.27
2019-06-01T01:08:58.638Z,57.86
2019-06-01T01:10:03.933Z,56.52
2019-06-01T01:11:08.636Z,57.73
2019-06-01T01:12:13.683Z,58.23
2019-06-01T01:13:20.912Z,57.48
2019-06-01T01:14:26.200Z,57.19
2019-06-01T01:15:31.157Z,57.14
2019-06-01T01:16:36.700Z,57.71
2019-06-01T01:17:41.209Z,57.33
2019-06-01T01:18:47.765Z,56.80
2019-06-01T01:19:53.918Z,57.69
2019-06-01T01:20:59.792Z,59.21
2019-06-01T01:22:05.773Z,58.50
2019-06-01T01:23:10.845Z,58.59
2019-06-01T01:24:16.087Z,58.80
2019-06-01T01:25:21.932Z,58.51
2019-06-01T01:26:26.909Z,57.81
2019-06-01T01:27:32.479Z,57.40
2019-06-01T01:28:37.736Z,57.23
2019-06-01T01:29:43.092Z,57.58
2019-06-01T01:31:02.988Z,57.10
2019-06-01T01:31:55.392Z,57.32
2019-06-01T01:33:00.589Z,57.93
2019-06-01T01:34:06.142Z,57.36
2019-06-01T01:35:10.955Z,57.95
2019-06-01T01:36:16.769Z,58.76
2019-06-01T01:37:21.788Z,59.72
2019-06-01T01:38:27.644Z,60.31
2019-06-01T01:39:32.910Z,59.70
2019-06-01T01:40:38.301Z,59.85
2019-06-01T01:41:43.312Z,59.55
2019-06-01T01:42:50.491Z,59.38
2019-06-01T01:43:56.566Z,59.42
2019-06-01T01:45:02.160Z,59.44
2019-06-01T01:46:06.745Z,58.59
2019-06-01T01:47:14.434Z,57.86
2019-06-01T01:48:19.158Z,57.55
2019-06-01T01:49:24.743Z,58.49
2019-06-01T01:50:29.718Z,58.73
2019-06-01T01:51:35.311Z,59.28
2019-06-01T01:52:40.834Z,59.32
2019-06-01T01:53:46.125Z,59.11
2019-06-01T01:54:51.138Z,58.67
2019-06-01T01:55:57.232Z,58.36
2019-06-01T01:57:02.718Z,58.03
2019-06-01T01:58:08.356Z,58.56
2019-06-01T01:59:12.838Z,58.21
2019-06-01T02:00:32.316Z,58.07
2019-06-01T02:01:37.310Z,58.89
2019-06-01T02:02:42.970Z,59.60
2019-06-01T02:03:47.942Z,59.70
2019-06-01T02:04:54.226Z,59.16
2019-06-01T02:05:59.257Z,59.66
2019-06-01T02:07:04.789Z,59.25
2019-06-01T02:08:09.736Z,59.57
2019-06-01T02:09:14.822Z,59.31
2019-06-01T02:10:19.515Z,58.48
2019-06-01T02:11:24.799Z,58.46
2019-06-01T02:12:30.070Z,58.53
2019-06-01T02:13:35.998Z,58.76
2019-06-01T02:14:41.001Z,58.55
2019-06-01T02:15:46.282Z,58.68
2019-06-01T02:16:51.900Z,59.09
2019-06-01T02:17:58.155Z,58.28
2019-06-01T02:19:03.429Z,58.85
2019-06-01T02:20:09.120Z,59.49
2019-06-01T02:21:13.807Z,59.41
2019-06-01T02:22:19.364Z,58.52
2019-06-01T02:23:24.643Z,58.21
2019-06-01T02:24:30.042Z,59.16
2019-06-01T02:25:34.626Z,58.86
2019-06-01T02:26:40.088Z,58.83
2019-06-01T02:27:44.540Z,60.09
2019-06-01T02:28:49.832Z,59.45
2019-06-01T02:29:55.300Z,59.75
2019-06-01T02:31:02.104Z,59.28
2019-06-01T02:32:07.587Z,59.63
2019-06-01T02:33:12.626Z,59.48
2019-06-01T02:34:17.319Z,59.91
2019-06-01T02:35:23.166Z,59.91
2019-06-01T02:36:28.425Z,59.91
2019-06-01T02:37:33.459Z,59.67
2019-06-01T02:38:38.199Z,59.91
2019-06-01T02:39:44.499Z,58.85
2019-06-01T02:40:49.882Z,59.42
2019-06-01T02:41:56.685Z,58.98
2019-06-01T02:43:03.716Z,58.08
2019-06-01T02:44:08.923Z,58.67
2019-06-01T02:45:14.124Z,58.20
2019-06-01T02:46:19.714Z,58.68
2019-06-01T02:47:24.687Z,58.89
2019-06-01T02:48:29.723Z,58.98
2019-06-01T02:49:35.057Z,59.19
2019-06-01T02:50:40.686Z,59.02
2019-06-01T02:51:45.667Z,59.55
2019-06-01T02:52:51.214Z,59.43
2019-06-01T02:53:57.593Z,58.90
2019-06-01T02:55:04.584Z,59.04
2019-06-01T02:56:09.646Z,59.75
2019-06-01T02:57:15.488Z,58.70
2019-06-01T02:58:21.044Z,58.82
2019-06-01T02:59:26.574Z,59.06
2019-06-01T03:01:12.102Z,59.06
2019-06-01T03:02:17.776Z,59.33
2019-06-01T03:03:22.462Z,59.88
2019-06-01T03:04:28.112Z,59.79
2019-06-01T03:05:33.748Z,60.14
2019-06-01T03:06:42.338Z,59.41
2019-06-01T03:07:50.241Z,59.58
2019-06-01T03:08:59.759Z,58.89
2019-06-01T03:10:06.955Z,58.50
2019-06-01T03:11:15.475Z,59.17
2019-06-01T03:12:22.637Z,59.63
2019-06-01T03:13:29.828Z,59.69
2019-06-01T03:14:36.923Z,60.06
2019-06-01T03:15:43.959Z,60.28
2019-06-01T03:16:52.391Z,60.12
2019-06-01T03:18:01.557Z,59.38
2019-06-01T03:19:08.068Z,60.00
2019-06-01T03:20:14.802Z,59.49
2019-06-01T03:21:22.383Z,59.23
2019-06-01T03:22:29.087Z,60.02
2019-06-01T03:23:36.101Z,60.02
2019-06-01T03:24:41.681Z,60.78
2019-06-01T03:25:49.578Z,60.61
2019-06-01T03:26:56.239Z,59.77
2019-06-01T03:28:04.237Z,59.76
2019-06-01T03:29:12.728Z,59.76
2019-06-01T03:30:23.299Z,60.06
2019-06-01T03:31:29.135Z,59.37
2019-06-01T03:32:37.131Z,60.04
2019-06-01T03:33:41.453Z,60.04
2019-06-01T03:34:46.410Z,60.23
2019-06-01T03:35:51.964Z,60.61
2019-06-01T03:36:56.977Z,60.16
2019-06-01T03:38:03.018Z,60.26
2019-06-01T03:39:08.518Z,60.26
2019-06-01T03:40:23.406Z,60.29
2019-06-01T03:41:21.193Z,61.12
2019-06-01T03:42:26.761Z,60.76
2019-06-01T03:43:32.064Z,60.76
2019-06-01T03:44:37.923Z,61.25
2019-06-01T03:45:42.905Z,60.52
2019-06-01T03:46:48.644Z,59.99
2019-06-01T03:47:54.201Z,59.99
2019-06-01T03:48:59.480Z,59.89
2019-06-01T03:50:04.837Z,60.48
2019-06-01T03:51:10.406Z,60.42
2019-06-01T03:52:15.403Z,60.33
2019-06-01T03:53:20.980Z,60.93
2019-06-01T03:54:26.102Z,61.68
2019-06-01T03:55:31.985Z,60.59
2019-06-01T03:56:36.928Z,60.59
2019-06-01T03:57:42.258Z,60.61
2019-06-01T03:58:47.223Z,60.52
2019-06-01T03:59:53.095Z,60.87
2019-06-01T04:00:58.263Z,61.36
2019-06-01T04:02:03.566Z,60.82
2019-06-01T04:03:09.202Z,60.82
2019-06-01T04:04:15.044Z,61.63
2019-06-01T04:05:20.019Z,61.63
2019-06-01T04:06:25.843Z,60.90
2019-06-01T04:07:31.390Z,62.56
2019-06-01T04:08:36.981Z,61.59
2019-06-01T04:09:41.741Z,60.96
2019-06-01T04:10:47.486Z,61.29
2019-06-01T04:11:52.486Z,61.38
2019-06-01T04:12:58.361Z,62.44
2019-06-01T04:14:03.605Z,63.97
2019-06-01T04:15:13.104Z,61.98
2019-06-01T04:16:15.760Z,61.87
2019-06-01T04:17:21.035Z,61.87
2019-06-01T04:18:25.511Z,61.45
2019-06-01T04:19:31.001Z,61.02
2019-06-01T04:20:36.098Z,60.82
2019-06-01T04:21:41.451Z,60.82
2019-06-01T04:22:46.182Z,63.67
2019-06-01T04:23:51.575Z,63.67
2019-06-01T04:24:57.189Z,63.71
2019-06-01T04:26:04.149Z,63.61
2019-06-01T04:27:10.244Z,63.57
2019-06-01T04:28:16.363Z,62.44
2019-06-01T04:29:21.329Z,64.12
2019-06-01T04:30:28.974Z,63.22
2019-06-01T04:31:33.678Z,64.84
2019-06-01T04:32:49.350Z,64.84
2019-06-01T04:33:46.204Z,64.83
2019-06-01T04:34:51.771Z,63.91
2019-06-01T04:35:56.294Z,62.97
2019-06-01T04:37:03.496Z,63.16
2019-06-01T04:38:09.237Z,64.10
2019-06-01T04:39:15.482Z,64.29
2019-06-01T04:40:20.146Z,64.29
2019-06-01T04:41:25.987Z,63.88
2019-06-01T04:42:30.979Z,63.73
2019-06-01T04:43:36.794Z,64.23
2019-06-01T04:44:41.855Z,63.51
2019-06-01T04:45:47.497Z,63.29
2019-06-01T04:46:52.188Z,63.29
2019-06-01T04:47:57.524Z,63.04
2019-06-01T04:49:02.761Z,62.56
2019-06-01T04:50:08.724Z,62.18
2019-06-01T04:51:14.969Z,62.81
2019-06-01T04:52:20.967Z,62.81
2019-06-01T04:53:26.075Z,63.33
2019-06-01T04:54:31.523Z,62.84
2019-06-01T04:55:36.794Z,63.33
2019-06-01T04:56:42.358Z,63.29
2019-06-01T04:57:47.036Z,64.16
2019-06-01T04:58:52.964Z,63.21
2019-06-01T04:59:57.716Z,63.21
2019-06-01T05:01:03.295Z,63.50
2019-06-01T05:02:09.305Z,63.50
2019-06-01T05:03:15.504Z,62.56
2019-06-01T05:04:20.419Z,63.19
2019-06-01T05:05:26.257Z,62.97
2019-06-01T05:06:31.063Z,62.31
2019-06-01T05:07:37.184Z,62.31
2019-06-01T05:08:42.478Z,62.36
2019-06-01T05:09:48.412Z,62.77
2019-06-01T05:10:53.436Z,62.63
2019-06-01T05:11:59.304Z,61.80
2019-06-01T05:13:03.774Z,61.80
2019-06-01T05:14:09.724Z,61.60
2019-06-01T05:15:16.209Z,61.42
2019-06-01T05:16:22.338Z,61.42
2019-06-01T05:17:27.433Z,61.76
2019-06-01T05:18:32.959Z,61.16
2019-06-01T05:19:38.351Z,61.22
2019-06-01T05:20:44.778Z,60.92
2019-06-01T05:21:49.724Z,60.55
2019-06-01T05:22:55.313Z,60.80
2019-06-01T05:24:00.457Z,60.80
2019-06-01T05:25:06.870Z,60.65
2019-06-01T05:26:12.853Z,61.06
2019-06-01T05:27:18.492Z,61.12
2019-06-01T05:28:23.750Z,61.79
2019-06-01T05:29:29.283Z,61.77
2019-06-01T05:30:34.617Z,62.04
2019-06-01T05:31:40.799Z,61.47
2019-06-01T05:32:46.101Z,61.47
2019-06-01T05:33:51.985Z,60.13
2019-06-01T05:34:56.755Z,59.89
2019-06-01T05:36:02.601Z,60.72
2019-06-01T05:37:08.509Z,61.65
2019-06-01T05:38:14.327Z,61.80
2019-06-01T05:39:19.604Z,59.34
2019-06-01T05:40:25.489Z,59.34
2019-06-01T05:41:30.461Z,60.29
2019-06-01T05:42:36.307Z,60.46
2019-06-01T05:43:41.973Z,59.57
2019-06-01T05:44:47.542Z,60.24
2019-06-01T05:45:52.810Z,59.57
2019-06-01T05:46:58.382Z,60.33
2019-06-01T05:48:03.629Z,59.88
2019-06-01T05:49:11.988Z,59.27
2019-06-01T05:50:16.442Z,59.37
2019-06-01T05:51:23.054Z,58.82
2019-06-01T05:52:27.798Z,58.44
2019-06-01T05:53:33.694Z,57.00
2019-06-01T05:54:38.743Z,57.48
2019-06-01T05:55:44.310Z,57.98
2019-06-01T05:56:49.874Z,56.69
2019-06-01T05:57:55.158Z,56.08
2019-06-01T05:59:00.138Z,56.68
2019-06-01T06:00:06.198Z,56.07
2019-06-01T06:01:12.348Z,54.99
2019-06-01T06:02:19.486Z,54.70
2019-06-01T06:03:39.528Z,53.92
2019-06-01T06:04:32.477Z,53.13
2019-06-01T06:05:37.518Z,52.84
2019-06-01T06:06:44.320Z,52.70
2019-06-01T06:07:49.271Z,51.96
2019-06-01T06:08:55.185Z,51.56
2019-06-01T06:10:00.148Z,51.22
2019-06-01T06:11:06.320Z,51.34
2019-06-01T06:12:11.334Z,50.61
2019-06-01T06:13:17.459Z,50.05
2019-06-01T06:14:22.820Z,50.28
2019-06-01T06:15:28.088Z,49.75
2019-06-01T06:16:33.351Z,49.12
2019-06-01T06:17:38.929Z,49.22
2019-06-01T06:18:43.380Z,48.90
2019-06-01T06:19:49.315Z,48.39
2019-06-01T06:20:54.274Z,48.49
2019-06-01T06:21:59.822Z,47.99
2019-06-01T06:23:04.534Z,47.25
2019-06-01T06:24:09.836Z,46.79
2019-06-01T06:25:14.823Z,46.51
2019-06-01T06:26:20.902Z,46.24
2019-06-01T06:27:27.207Z,45.64
2019-06-01T06:28:32.574Z,44.64
2019-06-01T06:29:37.831Z,41.98
2019-06-01T06:30:43.396Z,39.56
2019-06-01T06:31:48.463Z,36.65
2019-06-01T06:32:54.272Z,34.94
2019-06-01T06:33:58.911Z,34.07
2019-06-01T06:35:03.933Z,32.32
2019-06-01T06:36:08.904Z,31.19
2019-06-01T06:37:15.551Z,29.17
2019-06-01T06:38:21.931Z,29.25
2019-06-01T06:39:27.776Z,28.77
2019-06-01T06:40:33.829Z,26.91
2019-06-01T06:41:39.377Z,26.08
2019-06-01T06:42:44.621Z,26.57
2019-06-01T06:43:50.522Z,26.47
2019-06-01T06:44:55.761Z,25.03
2019-06-01T06:46:01.339Z,25.30
2019-06-01T06:47:06.278Z,24.91
2019-06-01T06:48:11.848Z,25.75
2019-06-01T06:49:17.130Z,24.34
2019-06-01T06:50:23.566Z,23.69
2019-06-01T06:51:28.647Z,23.22
2019-06-01T06:52:34.264Z,23.16
2019-06-01T06:53:38.937Z,22.41
2019-06-01T06:54:44.276Z,22.26
2019-06-01T06:55:49.248Z,22.68
2019-06-01T06:56:54.506Z,22.35
2019-06-01T06:57:59.214Z,22.54
2019-06-01T06:59:04.290Z,21.65
2019-06-01T07:00:09.346Z,21.36
2019-06-01T07:01:14.607Z,22.26
2019-06-01T07:02:19.482Z,21.39
2019-06-01T07:03:25.241Z,22.09
2019-06-01T07:04:30.494Z,22.87
2019-06-01T07:05:36.080Z,22.79
2019-06-01T07:06:40.762Z,24.28
2019-06-01T07:07:46.021Z,24.14
2019-06-01T07:08:50.964Z,23.83
2019-06-01T07:09:56.136Z,24.45
2019-06-01T07:11:00.845Z,25.70
2019-06-01T07:12:06.385Z,26.38
2019-06-01T07:13:11.656Z,25.48
2019-06-01T07:14:17.730Z,25.48
2019-06-01T07:15:23.491Z,25.67
2019-06-01T07:16:28.588Z,26.91
2019-06-01T07:17:33.261Z,29.24
2019-06-01T07:18:39.100Z,29.69
2019-06-01T07:19:44.673Z,27.08
2019-06-01T07:20:50.241Z,26.20
2019-06-01T07:21:55.190Z,25.48
2019-06-01T07:23:01.024Z,26.78
2019-06-01T07:24:05.746Z,25.85
2019-06-01T07:25:11.551Z,23.40
2019-06-01T07:26:17.095Z,22.73
2019-06-01T07:27:22.631Z,21.19
2019-06-01T07:28:28.267Z,22.04
2019-06-01T07:29:33.942Z,20.94
2019-06-01T07:30:49.701Z,20.08
2019-06-01T07:31:46.720Z,20.15
2019-06-01T07:32:52.034Z,19.63
2019-06-01T07:33:58.108Z,19.20
2019-06-01T07:35:03.093Z,18.98
2019-06-01T07:36:08.380Z,19.12
2019-06-01T07:37:12.881Z,17.65
2019-06-01T07:38:18.492Z,18.75
2019-06-01T07:39:24.868Z,18.71
2019-06-01T07:40:30.604Z,20.56
2019-06-01T07:41:35.558Z,19.68
2019-06-01T07:42:41.116Z,19.52
2019-06-01T07:43:46.130Z,18.92
2019-06-01T07:44:51.438Z,18.29
2019-06-01T07:45:56.411Z,17.65
2019-06-01T07:47:02.048Z,17.96
2019-06-01T07:48:07.265Z,18.23
2019-06-01T07:49:13.127Z,17.75
2019-06-01T07:50:17.806Z,17.81
2019-06-01T07:51:23.653Z,16.92
2019-06-01T07:52:28.631Z,16.11
2019-06-01T07:53:33.896Z,16.85
2019-06-01T07:54:38.867Z,16.47
2019-06-01T07:55:44.385Z,15.86
2019-06-01T07:56:49.091Z,15.51
2019-06-01T07:57:54.703Z,15.53
2019-06-01T07:58:59.467Z,15.38
2019-06-01T08:00:04.661Z,16.56
2019-06-01T08:01:09.097Z,17.14
2019-06-01T08:02:14.669Z,16.63
2019-06-01T08:03:19.924Z,17.04
2019-06-01T08:04:28.121Z,16.16
2019-06-01T08:05:33.222Z,16.59
2019-06-01T08:06:45.132Z,15.76
2019-06-01T08:07:45.746Z,15.62
2019-06-01T08:08:50.857Z,16.14
2019-06-01T08:09:56.121Z,14.69
2019-06-01T08:11:02.271Z,14.75
2019-06-01T08:12:07.222Z,14.24
2019-06-01T08:13:13.077Z,14.09
2019-06-01T08:14:18.051Z,14.15
2019-06-01T08:15:23.567Z,14.59
2019-06-01T08:16:28.276Z,14.49
2019-06-01T08:17:34.154Z,14.12
2019-06-01T08:18:39.406Z,13.98
2019-06-01T08:19:44.992Z,13.62
2019-06-01T08:20:50.221Z,13.06
2019-06-01T08:21:55.794Z,13.15
2019-06-01T08:23:01.246Z,13.83
2019-06-01T08:24:07.076Z,14.16
2019-06-01T08:25:12.299Z,14.36
2019-06-01T08:26:20.019Z,13.72
2019-06-01T08:27:24.947Z,13.30
2019-06-01T08:28:30.882Z,13.79
2019-06-01T08:29:35.876Z,13.43
2019-06-01T08:30:41.139Z,12.99
2019-06-01T08:31:46.106Z,12.58
2019-06-01T08:32:51.654Z,13.37
2019-06-01T08:33:56.086Z,15.54
2019-06-01T08:35:08.559Z,13.36
2019-06-01T08:36:08.072Z,13.47
2019-06-01T08:37:13.903Z,13.40
2019-06-01T08:38:18.886Z,13.67
2019-06-01T08:39:25.199Z,13.29
2019-06-01T08:40:31.429Z,12.94
2019-06-01T08:41:36.749Z,13.01
2019-06-01T08:42:41.733Z,12.82
2019-06-01T08:43:47.299Z,12.55
2019-06-01T08:44:52.248Z,12.76
2019-06-01T08:45:57.541Z,12.67
2019-06-01T08:47:02.348Z,12.18
2019-06-01T08:48:07.921Z,13.32
2019-06-01T08:49:12.627Z,13.16
2019-06-01T08:50:18.807Z,13.01
2019-06-01T08:51:23.989Z,12.36
2019-06-01T08:52:30.393Z,12.79
2019-06-01T08:53:35.164Z,13.55
2019-06-01T08:54:40.508Z,12.54
2019-06-01T08:55:45.737Z,13.33
2019-06-01T08:56:51.341Z,12.81
2019-06-01T08:57:56.044Z,12.62
2019-06-01T08:59:01.933Z,12.73
2019-06-01T09:00:07.968Z,12.33
2019-06-01T09:01:13.315Z,12.15
2019-06-01T09:02:18.670Z,11.93
2019-06-01T09:03:25.736Z,12.05
2019-06-01T09:04:32.732Z,12.12
2019-06-01T09:05:37.931Z,13.97
2019-06-01T09:06:42.922Z,13.01
2019-06-01T09:07:47.992Z,13.05
2019-06-01T09:08:52.957Z,11.90
2019-06-01T09:09:58.036Z,11.86
2019-06-01T09:11:03.273Z,11.78
2019-06-01T09:12:08.582Z,11.86
2019-06-01T09:13:13.539Z,11.85
2019-06-01T09:14:18.563Z,11.96
2019-06-01T09:15:23.592Z,11.74
2019-06-01T09:16:29.694Z,11.43
2019-06-01T09:17:35.526Z,11.60
2019-06-01T09:18:40.941Z,11.52
2019-06-01T09:19:45.925Z,11.62
2019-06-01T09:20:50.962Z,11.00
2019-06-01T09:21:55.954Z,11.11
2019-06-01T09:23:02.153Z,10.82
2019-06-01T09:24:06.833Z,11.21
2019-06-01T09:25:12.115Z,10.94
2019-06-01T09:26:17.398Z,10.77
2019-06-01T09:27:22.974Z,10.57
2019-06-01T09:28:27.934Z,10.32
2019-06-01T09:29:34.079Z,11.04
2019-06-01T09:30:39.415Z,10.78
2019-06-01T09:31:45.242Z,11.14
2019-06-01T09:32:50.216Z,12.01
2019-06-01T09:33:55.597Z,12.21
2019-06-01T09:35:00.276Z,12.54
2019-06-01T09:36:05.538Z,12.51
2019-06-01T09:37:10.500Z,12.35
2019-06-01T09:38:16.091Z,12.21
2019-06-01T09:39:20.770Z,12.20
2019-06-01T09:40:28.253Z,11.11
2019-06-01T09:41:33.133Z,11.91
2019-06-01T09:42:38.186Z,11.55
2019-06-01T09:43:42.622Z,11.75
2019-06-01T09:44:48.348Z,12.08
2019-06-01T09:45:53.753Z,11.93
2019-06-01T09:46:59.241Z,11.93
2019-06-01T09:48:03.945Z,11.77
2019-06-01T09:49:09.538Z,11.46
2019-06-01T09:50:14.724Z,11.37
2019-06-01T09:51:20.301Z,11.96
2019-06-01T09:52:25.577Z,12.11
2019-06-01T09:53:32.426Z,12.42
2019-06-01T09:54:38.138Z,13.43
2019-06-01T09:55:43.636Z,13.49
2019-06-01T09:56:48.949Z,13.45
2019-06-01T09:57:54.234Z,13.12
2019-06-01T09:58:59.482Z,14.02
2019-06-01T10:00:05.200Z,14.09
2019-06-01T10:01:09.913Z,13.17
2019-06-01T10:02:15.156Z,12.14
2019-06-01T10:03:20.095Z,12.94
2019-06-01T10:04:25.365Z,13.70
2019-06-01T10:05:30.280Z,13.14
2019-06-01T10:06:36.617Z,13.37
2019-06-01T10:07:41.641Z,12.67
2019-06-01T10:08:47.252Z,11.79
2019-06-01T10:09:52.542Z,11.82
2019-06-01T10:10:58.089Z,12.68
2019-06-01T10:12:03.096Z,12.88
2019-06-01T10:13:08.650Z,12.25
2019-06-01T10:14:13.336Z,12.51
2019-06-01T10:15:18.601Z,12.01
2019-06-01T10:16:23.833Z,11.79
2019-06-01T10:17:30.449Z,11.46
2019-06-01T10:18:36.935Z,11.14
2019-06-01T10:19:43.133Z,11.64
2019-06-01T10:20:48.357Z,11.88
2019-06-01T10:21:54.473Z,12.03
2019-06-01T10:22:59.157Z,12.22
2019-06-01T10:24:04.479Z,12.04
2019-06-01T10:25:09.968Z,12.13
2019-06-01T10:26:15.234Z,11.71
2019-06-01T10:27:20.205Z,11.38
2019-06-01T10:28:25.883Z,11.35
2019-06-01T10:29:30.748Z,11.58
2019-06-01T10:30:37.830Z,10.47
2019-06-01T10:31:43.256Z,11.07
2019-06-01T10:32:49.066Z,10.88
2019-06-01T10:33:54.107Z,10.73
2019-06-01T10:34:59.396Z,10.63
2019-06-01T10:36:19.044Z,11.10
2019-06-01T10:37:11.648Z,10.44
2019-06-01T10:38:16.935Z,11.07
2019-06-01T10:39:22.273Z,11.47
2019-06-01T10:40:27.302Z,11.59
2019-06-01T10:41:33.288Z,11.69
2019-06-01T10:42:39.728Z,11.53
2019-06-01T10:43:45.462Z,10.54
2019-06-01T10:44:50.423Z,11.52
2019-06-01T10:45:55.703Z,11.77
2019-06-01T10:47:00.417Z,11.54
2019-06-01T10:48:05.694Z,10.94
2019-06-01T10:49:10.681Z,11.11
2019-06-01T10:50:17.613Z,10.92
2019-06-01T10:51:22.497Z,11.08
2019-06-01T10:52:28.359Z,11.54
2019-06-01T10:53:34.851Z,10.07
2019-06-01T10:54:42.463Z,9.70
2019-06-01T10:55:47.447Z,11.08
2019-06-01T10:56:53.191Z,11.84
2019-06-01T10:57:58.666Z,12.44
2019-06-01T10:59:03.709Z,11.78
2019-06-01T11:00:08.795Z,11.13
2019-06-01T11:01:14.390Z,11.38
2019-06-01T11:02:18.824Z,11.55
2019-06-01T11:03:24.106Z,11.04
2019-06-01T11:04:28.850Z,10.42
2019-06-01T11:05:34.978Z,10.34
2019-06-01T11:06:44.912Z,9.90
2019-06-01T11:07:46.580Z,9.88
2019-06-01T11:08:51.903Z,9.81
2019-06-01T11:09:57.781Z,10.26
2019-06-01T11:11:02.509Z,10.20
2019-06-01T11:12:07.766Z,10.75
2019-06-01T11:13:13.330Z,10.07
2019-06-01T11:14:18.602Z,11.09
2019-06-01T11:15:24.165Z,10.84
2019-06-01T11:16:29.785Z,10.43
2019-06-01T11:17:34.935Z,10.97
2019-06-01T11:18:41.760Z,10.54
2019-06-01T11:19:46.638Z,10.79
2019-06-01T11:20:52.432Z,10.62
2019-06-01T11:21:58.005Z,10.18
2019-06-01T11:23:03.701Z,10.27
2019-06-01T11:24:08.337Z,10.20
2019-06-01T11:25:14.117Z,10.82
2019-06-01T11:26:19.355Z,10.95
2019-06-01T11:27:24.933Z,10.48
2019-06-01T11:28:29.911Z,10.45
2019-06-01T11:29:41.192Z,10.42
2019-06-01T11:30:42.141Z,10.79
2019-06-01T11:31:47.708Z,11.17
2019-06-01T11:32:52.877Z,11.09
2019-06-01T11:33:57.914Z,10.82
2019-06-01T11:35:02.642Z,10.86
2019-06-01T11:36:08.196Z,10.89
2019-06-01T11:37:15.439Z,11.13
2019-06-01T11:38:20.167Z,10.63
2019-06-01T11:39:25.171Z,10.04
2019-06-01T11:40:31.118Z,10.70
2019-06-01T11:41:36.391Z,10.74
2019-06-01T11:42:42.803Z,10.84
2019-06-01T11:43:48.275Z,10.62
2019-06-01T11:44:53.896Z,10.40
2019-06-01T11:45:58.890Z,10.68
2019-06-01T11:47:04.418Z,10.74
2019-06-01T11:48:09.392Z,10.54
2019-06-01T11:49:14.991Z,10.03
2019-06-01T11:50:19.693Z,10.40
2019-06-01T11:51:25.374Z,10.60
2019-06-01T11:52:29.802Z,10.74
2019-06-01T11:53:35.372Z,10.38
2019-06-01T11:54:41.193Z,10.65
2019-06-01T11:55:46.606Z,11.00
2019-06-01T11:56:51.920Z,10.20
2019-06-01T11:57:57.443Z,10.60
2019-06-01T11:59:02.725Z,10.89
2019-06-01T12:00:10.066Z,11.20
2019-06-01T12:01:15.095Z,10.65
2019-06-01T12:02:20.673Z,10.87
2019-06-01T12:03:26.253Z,10.60
2019-06-01T12:04:31.299Z,10.63
2019-06-01T12:05:36.298Z,10.85
2019-06-01T12:06:42.095Z,11.42
2019-06-01T12:07:47.351Z,11.99
2019-06-01T12:08:53.461Z,14.11
2019-06-01T12:09:58.540Z,16.25
2019-06-01T12:11:03.872Z,17.10
2019-06-01T12:12:08.854Z,17.77
2019-06-01T12:13:14.668Z,18.20
2019-06-01T12:14:19.645Z,18.67
2019-06-01T12:15:26.882Z,19.04
2019-06-01T12:16:32.224Z,18.98
2019-06-01T12:17:38.597Z,19.58
2019-06-01T12:18:44.725Z,20.03
2019-06-01T12:19:50.385Z,21.14
2019-06-01T12:20:55.067Z,21.34
2019-06-01T12:22:00.954Z,22.18
2019-06-01T12:23:05.876Z,22.29
2019-06-01T12:24:11.707Z,21.43
2019-06-01T12:25:16.856Z,21.69
2019-06-01T12:26:22.131Z,21.01
2019-06-01T12:27:26.805Z,21.11
2019-06-01T12:28:32.358Z,21.92
2019-06-01T12:29:37.741Z,22.46
2019-06-01T12:30:43.824Z,22.42
2019-06-01T12:31:49.333Z,23.14
2019-06-01T12:32:55.000Z,24.82
2019-06-01T12:34:00.260Z,24.22
2019-06-01T12:35:06.289Z,23.76
2019-06-01T12:36:11.005Z,23.72
2019-06-01T12:37:34.151Z,24.20
2019-06-01T12:38:23.356Z,24.46
2019-06-01T12:39:28.955Z,24.59
2019-06-01T12:40:33.641Z,24.84
2019-06-01T12:41:39.754Z,24.75
2019-06-01T12:42:45.918Z,24.59
2019-06-01T12:44:08.677Z,25.24
2019-06-01T12:45:22.432Z,25.17
2019-06-01T12:46:26.332Z,24.75
2019-06-01T12:47:31.744Z,24.33
2019-06-01T12:48:37.002Z,25.32
2019-06-01T12:49:42.382Z,25.98
2019-06-01T12:50:50.788Z,26.10
2019-06-01T12:51:54.252Z,26.60
2019-06-01T12:52:59.818Z,25.75
2019-06-01T12:54:04.812Z,25.81
2019-06-01T12:55:10.275Z,25.90
2019-06-01T12:56:15.539Z,26.00
2019-06-01T12:57:21.199Z,25.86
2019-06-01T12:58:26.256Z,25.84
2019-06-01T12:59:32.070Z,26.46
2019-06-01T13:00:37.019Z,25.67
2019-06-01T13:01:43.104Z,26.72
2019-06-01T13:02:59.241Z,26.96
2019-06-01T13:03:55.249Z,26.73
2019-06-01T13:05:00.788Z,25.89
2019-06-01T13:06:06.329Z,26.11
2019-06-01T13:07:11.572Z,26.15
2019-06-01T13:08:17.416Z,26.15
2019-06-01T13:09:22.139Z,25.75
2019-06-01T13:10:27.700Z,26.30
2019-06-01T13:11:32.377Z,26.06
2019-06-01T13:12:37.932Z,25.38
2019-06-01T13:13:43.201Z,25.67
2019-06-01T13:14:49.356Z,25.42
2019-06-01T13:15:54.128Z,25.38
2019-06-01T13:17:07.312Z,26.17
2019-06-01T13:18:06.473Z,25.96
2019-06-01T13:19:11.780Z,25.78
2019-06-01T13:20:16.495Z,25.91
2019-06-01T13:21:22.298Z,25.47
2019-06-01T13:22:27.051Z,26.13
2019-06-01T13:23:32.591Z,25.86
2019-06-01T13:24:37.526Z,25.36
2019-06-01T13:25:43.582Z,25.74
2019-06-01T13:26:50.037Z,26.36
2019-06-01T13:27:56.155Z,26.17
2019-06-01T13:29:01.105Z,26.28
2019-06-01T13:30:07.254Z,26.91
2019-06-01T13:31:12.476Z,26.05
2019-06-01T13:32:18.149Z,26.03
2019-06-01T13:33:22.625Z,26.60
2019-06-01T13:34:28.454Z,25.54
2019-06-01T13:35:35.362Z,26.59
2019-06-01T13:36:40.644Z,26.56
2019-06-01T13:37:46.615Z,27.31
2019-06-01T13:38:52.944Z,27.65
2019-06-01T13:39:58.499Z,28.00
2019-06-01T13:41:03.880Z,27.94
2019-06-01T13:42:08.858Z,27.30
2019-06-01T13:43:14.432Z,26.95
2019-06-01T13:44:19.986Z,26.92
2019-06-01T13:45:25.234Z,27.77
2019-06-01T13:46:29.924Z,27.50
2019-06-01T13:47:35.492Z,27.38
2019-06-01T13:48:40.437Z,27.32
2019-06-01T13:49:46.850Z,27.01
2019-06-01T13:50:52.230Z,27.09
2019-06-01T13:51:57.760Z,27.36
2019-06-01T13:53:03.545Z,27.31
2019-06-01T13:54:09.092Z,26.48
2019-06-01T13:55:14.511Z,26.84
2019-06-01T13:56:20.080Z,27.37
2019-06-01T13:57:25.349Z,26.97
2019-06-01T13:58:30.884Z,26.63
2019-06-01T13:59:35.585Z,27.00
2019-06-01T14:00:41.120Z,26.57
2019-06-01T14:01:46.952Z,26.99
2019-06-01T14:02:55.517Z,26.50
2019-06-01T14:03:59.504Z,26.83
2019-06-01T14:05:04.761Z,26.73